sensor_id;sensor_type;location;lat;lon;timestamp;P1;durP1;ratioP1;P2;durP2;ratioP2
20928;SDS011;21895;47.072;15.132;2022-10-18T00:00:05;83.60;;;17.57;;
20928;SDS011;21895;47.072;15.132;2022-10-18T00:02:33;58.93;;;16.60;;
20928;SDS011;21895;47.072;15.132;2022-10-18T00:05:00;31.57;;;16.10;;
20928;SDS011;21895;47.072;15.132;2022-10-18T00:07:26;27.17;;;14.37;;
20928;SDS011;21895;47.072;15.132;2022-10-18T00:09:55;49.90;;;14.63;;
20928;SDS011;21895;47.072;15.132;2022-10-18T00:12:22;67.73;;;14.40;;
20928;SDS011;21895;47.072;15.132;2022-10-18T00:14:49;29.43;;;13.80;;
20928;SDS011;21895;47.072;15.132;2022-10-18T00:17:15;54.63;;;14.33;;
20928;SDS011;21895;47.072;15.132;2022-10-18T00:19:42;77.63;;;15.07;;
20928;SDS011;21895;47.072;15.132;2022-10-18T00:22:09;63.00;;;14.60;;
20928;SDS011;21895;47.072;15.132;2022-10-18T00:24:35;89.13;;;14.10;;
20928;SDS011;21895;47.072;15.132;2022-10-18T00:27:02;67.13;;;14.10;;
20928;SDS011;21895;47.072;15.132;2022-10-18T00:29:28;31.50;;;14.73;;
20928;SDS011;21895;47.072;15.132;2022-10-18T00:31:55;50.70;;;15.97;;
20928;SDS011;21895;47.072;15.132;2022-10-18T00:34:21;41.53;;;14.20;;
20928;SDS011;21895;47.072;15.132;2022-10-18T00:36:48;75.80;;;15.00;;
20928;SDS011;21895;47.072;15.132;2022-10-18T00:39:16;94.27;;;14.90;;
20928;SDS011;21895;47.072;15.132;2022-10-18T00:41:45;84.37;;;15.93;;
20928;SDS011;21895;47.072;15.132;2022-10-18T00:44:59;26.47;;;14.77;;
20928;SDS011;21895;47.072;15.132;2022-10-18T00:47:47;48.27;;;15.03;;
20928;SDS011;21895;47.072;15.132;2022-10-18T00:50:19;42.10;;;14.47;;
20928;SDS011;21895;47.072;15.132;2022-10-18T00:52:49;53.67;;;13.97;;
20928;SDS011;21895;47.072;15.132;2022-10-18T00:55:24;86.80;;;14.27;;
20928;SDS011;21895;47.072;15.132;2022-10-18T00:57:53;36.47;;;14.47;;
20928;SDS011;21895;47.072;15.132;2022-10-18T01:00:20;40.47;;;15.70;;
20928;SDS011;21895;47.072;15.132;2022-10-18T01:02:47;70.30;;;14.90;;
20928;SDS011;21895;47.072;15.132;2022-10-18T01:05:15;36.67;;;15.80;;
20928;SDS011;21895;47.072;15.132;2022-10-18T01:08:05;58.57;;;16.83;;
20928;SDS011;21895;47.072;15.132;2022-10-18T01:29:11;29.27;;;15.60;;
20928;SDS011;21895;47.072;15.132;2022-10-18T01:32:11;25.60;;;14.53;;
20928;SDS011;21895;47.072;15.132;2022-10-18T01:34:47;24.77;;;14.07;;
20928;SDS011;21895;47.072;15.132;2022-10-18T01:37:20;29.03;;;14.10;;
20928;SDS011;21895;47.072;15.132;2022-10-18T01:39:49;33.90;;;14.53;;
20928;SDS011;21895;47.072;15.132;2022-10-18T01:42:21;32.37;;;14.37;;
20928;SDS011;21895;47.072;15.132;2022-10-18T01:44:49;30.47;;;14.47;;
20928;SDS011;21895;47.072;15.132;2022-10-18T01:47:18;25.23;;;14.70;;
20928;SDS011;21895;47.072;15.132;2022-10-18T01:49:47;29.83;;;14.47;;
20928;SDS011;21895;47.072;15.132;2022-10-18T01:52:14;33.30;;;13.63;;
20928;SDS011;21895;47.072;15.132;2022-10-18T01:54:42;31.17;;;14.57;;
20928;SDS011;21895;47.072;15.132;2022-10-18T02:03:33;28.80;;;13.27;;
20928;SDS011;21895;47.072;15.132;2022-10-18T02:11:02;25.40;;;13.23;;
20928;SDS011;21895;47.072;15.132;2022-10-18T02:13:47;31.53;;;14.23;;
20928;SDS011;21895;47.072;15.132;2022-10-18T02:16:24;24.77;;;14.40;;
20928;SDS011;21895;47.072;15.132;2022-10-18T02:19:01;25.07;;;14.23;;
20928;SDS011;21895;47.072;15.132;2022-10-18T02:21:42;25.77;;;13.60;;
20928;SDS011;21895;47.072;15.132;2022-10-18T02:24:13;26.20;;;14.07;;
20928;SDS011;21895;47.072;15.132;2022-10-18T02:26:42;35.23;;;14.90;;
20928;SDS011;21895;47.072;15.132;2022-10-18T02:29:09;36.00;;;14.27;;
20928;SDS011;21895;47.072;15.132;2022-10-18T02:31:43;27.17;;;14.23;;
20928;SDS011;21895;47.072;15.132;2022-10-18T02:34:22;29.70;;;14.50;;
20928;SDS011;21895;47.072;15.132;2022-10-18T02:37:36;24.43;;;14.63;;
20928;SDS011;21895;47.072;15.132;2022-10-18T02:40:06;27.40;;;14.33;;
20928;SDS011;21895;47.072;15.132;2022-10-18T02:42:36;23.67;;;13.63;;
20928;SDS011;21895;47.072;15.132;2022-10-18T02:45:12;24.70;;;14.27;;
20928;SDS011;21895;47.072;15.132;2022-10-18T02:47:41;25.07;;;14.07;;
20928;SDS011;21895;47.072;15.132;2022-10-18T02:50:07;23.90;;;13.43;;
20928;SDS011;21895;47.072;15.132;2022-10-18T02:52:34;27.20;;;13.57;;
20928;SDS011;21895;47.072;15.132;2022-10-18T02:55:01;23.23;;;13.63;;
20928;SDS011;21895;47.072;15.132;2022-10-18T02:57:28;26.37;;;14.63;;
20928;SDS011;21895;47.072;15.132;2022-10-18T02:59:55;27.83;;;14.47;;
20928;SDS011;21895;47.072;15.132;2022-10-18T03:02:22;25.83;;;14.33;;
20928;SDS011;21895;47.072;15.132;2022-10-18T03:04:49;26.80;;;14.13;;
20928;SDS011;21895;47.072;15.132;2022-10-18T03:07:15;34.40;;;13.20;;
20928;SDS011;21895;47.072;15.132;2022-10-18T03:09:42;26.97;;;14.13;;
20928;SDS011;21895;47.072;15.132;2022-10-18T03:12:09;26.43;;;14.77;;
20928;SDS011;21895;47.072;15.132;2022-10-18T03:14:36;30.77;;;14.03;;
20928;SDS011;21895;47.072;15.132;2022-10-18T03:17:02;27.87;;;14.53;;
20928;SDS011;21895;47.072;15.132;2022-10-18T03:19:29;29.33;;;13.53;;
20928;SDS011;21895;47.072;15.132;2022-10-18T03:21:55;25.07;;;13.13;;
20928;SDS011;21895;47.072;15.132;2022-10-18T03:24:22;24.23;;;13.30;;
20928;SDS011;21895;47.072;15.132;2022-10-18T03:26:48;26.97;;;13.13;;
20928;SDS011;21895;47.072;15.132;2022-10-18T03:29:15;34.23;;;13.27;;
20928;SDS011;21895;47.072;15.132;2022-10-18T03:31:41;33.17;;;13.63;;
20928;SDS011;21895;47.072;15.132;2022-10-18T03:34:08;67.20;;;14.50;;
20928;SDS011;21895;47.072;15.132;2022-10-18T03:36:34;53.87;;;14.77;;
20928;SDS011;21895;47.072;15.132;2022-10-18T03:39:02;31.83;;;13.97;;
20928;SDS011;21895;47.072;15.132;2022-10-18T03:41:29;30.10;;;14.60;;
20928;SDS011;21895;47.072;15.132;2022-10-18T03:43:55;37.50;;;14.77;;
20928;SDS011;21895;47.072;15.132;2022-10-18T03:46:22;25.93;;;13.83;;
20928;SDS011;21895;47.072;15.132;2022-10-18T03:48:48;25.23;;;13.93;;
20928;SDS011;21895;47.072;15.132;2022-10-18T03:51:15;23.30;;;13.07;;
20928;SDS011;21895;47.072;15.132;2022-10-18T03:53:41;36.67;;;14.60;;
20928;SDS011;21895;47.072;15.132;2022-10-18T03:56:08;48.20;;;13.87;;
20928;SDS011;21895;47.072;15.132;2022-10-18T03:58:34;80.53;;;15.00;;
20928;SDS011;21895;47.072;15.132;2022-10-18T04:01:01;77.73;;;14.53;;
20928;SDS011;21895;47.072;15.132;2022-10-18T04:03:27;94.03;;;14.63;;
20928;SDS011;21895;47.072;15.132;2022-10-18T04:05:54;60.37;;;14.40;;
20928;SDS011;21895;47.072;15.132;2022-10-18T04:08:21;56.70;;;14.10;;
20928;SDS011;21895;47.072;15.132;2022-10-18T04:10:47;41.07;;;14.07;;
20928;SDS011;21895;47.072;15.132;2022-10-18T04:13:14;22.90;;;12.63;;
20928;SDS011;21895;47.072;15.132;2022-10-18T04:15:41;35.20;;;12.77;;
20928;SDS011;21895;47.072;15.132;2022-10-18T04:18:08;54.20;;;14.87;;
20928;SDS011;21895;47.072;15.132;2022-10-18T04:20:34;62.97;;;13.40;;
20928;SDS011;21895;47.072;15.132;2022-10-18T04:23:01;71.63;;;13.70;;
20928;SDS011;21895;47.072;15.132;2022-10-18T04:25:27;73.60;;;14.53;;
20928;SDS011;21895;47.072;15.132;2022-10-18T04:27:54;35.43;;;13.13;;
20928;SDS011;21895;47.072;15.132;2022-10-18T04:30:21;87.63;;;13.20;;
20928;SDS011;21895;47.072;15.132;2022-10-18T04:32:47;35.57;;;14.03;;
20928;SDS011;21895;47.072;15.132;2022-10-18T04:35:14;29.80;;;13.40;;
20928;SDS011;21895;47.072;15.132;2022-10-18T04:37:40;26.37;;;13.50;;
20928;SDS011;21895;47.072;15.132;2022-10-18T04:40:07;26.23;;;13.50;;
20928;SDS011;21895;47.072;15.132;2022-10-18T04:42:35;36.13;;;13.37;;
20928;SDS011;21895;47.072;15.132;2022-10-18T04:45:02;44.97;;;13.50;;
20928;SDS011;21895;47.072;15.132;2022-10-18T04:47:28;31.73;;;13.27;;
20928;SDS011;21895;47.072;15.132;2022-10-18T04:49:55;54.07;;;13.60;;
20928;SDS011;21895;47.072;15.132;2022-10-18T04:52:22;29.03;;;13.17;;
20928;SDS011;21895;47.072;15.132;2022-10-18T04:54:48;53.03;;;13.63;;
20928;SDS011;21895;47.072;15.132;2022-10-18T04:57:15;63.47;;;13.90;;
20928;SDS011;21895;47.072;15.132;2022-10-18T04:59:41;45.67;;;13.73;;
20928;SDS011;21895;47.072;15.132;2022-10-18T05:02:08;36.73;;;14.00;;
20928;SDS011;21895;47.072;15.132;2022-10-18T05:04:35;106.97;;;15.70;;
20928;SDS011;21895;47.072;15.132;2022-10-18T05:07:02;53.50;;;14.90;;
20928;SDS011;21895;47.072;15.132;2022-10-18T05:09:31;65.80;;;14.70;;
20928;SDS011;21895;47.072;15.132;2022-10-18T05:11:58;50.83;;;12.50;;
20928;SDS011;21895;47.072;15.132;2022-10-18T05:14:24;50.47;;;13.47;;
20928;SDS011;21895;47.072;15.132;2022-10-18T05:16:51;38.40;;;13.77;;
20928;SDS011;21895;47.072;15.132;2022-10-18T05:19:17;36.37;;;13.33;;
20928;SDS011;21895;47.072;15.132;2022-10-18T05:21:44;85.20;;;14.53;;
20928;SDS011;21895;47.072;15.132;2022-10-18T05:24:10;84.27;;;15.00;;
20928;SDS011;21895;47.072;15.132;2022-10-18T05:26:37;56.37;;;15.00;;
20928;SDS011;21895;47.072;15.132;2022-10-18T05:29:04;60.47;;;15.23;;
20928;SDS011;21895;47.072;15.132;2022-10-18T05:31:31;45.27;;;15.67;;
20928;SDS011;21895;47.072;15.132;2022-10-18T05:33:57;64.80;;;15.80;;
20928;SDS011;21895;47.072;15.132;2022-10-18T05:36:24;40.53;;;16.80;;
20928;SDS011;21895;47.072;15.132;2022-10-18T05:38:50;31.80;;;14.43;;
20928;SDS011;21895;47.072;15.132;2022-10-18T05:41:18;27.37;;;13.80;;
20928;SDS011;21895;47.072;15.132;2022-10-18T05:43:44;25.00;;;13.60;;
20928;SDS011;21895;47.072;15.132;2022-10-18T05:46:11;24.77;;;13.03;;
20928;SDS011;21895;47.072;15.132;2022-10-18T05:48:41;42.97;;;13.70;;
20928;SDS011;21895;47.072;15.132;2022-10-18T05:51:13;56.17;;;13.30;;
20928;SDS011;21895;47.072;15.132;2022-10-18T05:53:40;41.20;;;12.77;;
20928;SDS011;21895;47.072;15.132;2022-10-18T05:56:06;33.53;;;13.37;;
20928;SDS011;21895;47.072;15.132;2022-10-18T05:58:36;30.73;;;13.23;;
20928;SDS011;21895;47.072;15.132;2022-10-18T06:01:04;23.53;;;13.43;;
20928;SDS011;21895;47.072;15.132;2022-10-18T06:03:31;26.93;;;14.43;;
20928;SDS011;21895;47.072;15.132;2022-10-18T06:06:05;33.57;;;16.50;;
20928;SDS011;21895;47.072;15.132;2022-10-18T06:08:35;36.57;;;16.00;;
20928;SDS011;21895;47.072;15.132;2022-10-18T06:13:49;37.90;;;15.83;;
20928;SDS011;21895;47.072;15.132;2022-10-18T06:16:18;36.33;;;16.47;;
20928;SDS011;21895;47.072;15.132;2022-10-18T06:18:47;36.33;;;16.37;;
20928;SDS011;21895;47.072;15.132;2022-10-18T06:21:16;44.47;;;17.13;;
20928;SDS011;21895;47.072;15.132;2022-10-18T06:23:46;31.37;;;15.23;;
20928;SDS011;21895;47.072;15.132;2022-10-18T06:26:18;29.53;;;14.63;;
20928;SDS011;21895;47.072;15.132;2022-10-18T06:28:45;29.53;;;14.30;;
20928;SDS011;21895;47.072;15.132;2022-10-18T06:31:12;29.63;;;14.13;;
20928;SDS011;21895;47.072;15.132;2022-10-18T06:33:39;23.97;;;13.93;;
20928;SDS011;21895;47.072;15.132;2022-10-18T06:36:08;27.27;;;14.73;;
20928;SDS011;21895;47.072;15.132;2022-10-18T06:38:37;25.90;;;14.53;;
20928;SDS011;21895;47.072;15.132;2022-10-18T06:41:05;27.60;;;13.50;;
20928;SDS011;21895;47.072;15.132;2022-10-18T06:43:33;28.27;;;13.50;;
20928;SDS011;21895;47.072;15.132;2022-10-18T06:46:00;23.60;;;14.17;;
20928;SDS011;21895;47.072;15.132;2022-10-18T06:48:29;28.97;;;13.77;;
20928;SDS011;21895;47.072;15.132;2022-10-18T06:50:57;27.27;;;13.90;;
20928;SDS011;21895;47.072;15.132;2022-10-18T06:53:27;25.27;;;12.60;;
20928;SDS011;21895;47.072;15.132;2022-10-18T06:56:03;36.33;;;12.40;;
20928;SDS011;21895;47.072;15.132;2022-10-18T06:58:33;26.23;;;13.57;;
20928;SDS011;21895;47.072;15.132;2022-10-18T07:01:09;28.43;;;13.33;;
20928;SDS011;21895;47.072;15.132;2022-10-18T07:03:40;21.77;;;13.07;;
20928;SDS011;21895;47.072;15.132;2022-10-18T07:06:08;22.77;;;12.80;;
20928;SDS011;21895;47.072;15.132;2022-10-18T07:08:37;22.87;;;12.90;;
20928;SDS011;21895;47.072;15.132;2022-10-18T07:11:05;21.77;;;12.20;;
20928;SDS011;21895;47.072;15.132;2022-10-18T07:13:33;21.90;;;13.13;;
20928;SDS011;21895;47.072;15.132;2022-10-18T07:16:04;23.60;;;12.97;;
20928;SDS011;21895;47.072;15.132;2022-10-18T07:18:45;22.37;;;12.70;;
20928;SDS011;21895;47.072;15.132;2022-10-18T07:21:15;26.40;;;13.27;;
20928;SDS011;21895;47.072;15.132;2022-10-18T07:23:47;23.67;;;13.13;;
20928;SDS011;21895;47.072;15.132;2022-10-18T07:26:19;28.53;;;14.97;;
20928;SDS011;21895;47.072;15.132;2022-10-18T07:28:57;33.90;;;15.57;;
20928;SDS011;21895;47.072;15.132;2022-10-18T07:31:33;27.90;;;14.80;;
20928;SDS011;21895;47.072;15.132;2022-10-18T07:34:02;29.63;;;15.30;;
20928;SDS011;21895;47.072;15.132;2022-10-18T07:36:30;30.03;;;14.13;;
20928;SDS011;21895;47.072;15.132;2022-10-18T07:38:57;28.17;;;14.97;;
20928;SDS011;21895;47.072;15.132;2022-10-18T07:41:24;27.27;;;14.93;;
20928;SDS011;21895;47.072;15.132;2022-10-18T07:43:51;28.77;;;15.67;;
20928;SDS011;21895;47.072;15.132;2022-10-18T07:46:18;35.20;;;16.20;;
20928;SDS011;21895;47.072;15.132;2022-10-18T07:48:47;29.70;;;16.10;;
20928;SDS011;21895;47.072;15.132;2022-10-18T07:51:14;29.50;;;16.57;;
20928;SDS011;21895;47.072;15.132;2022-10-18T07:53:41;30.73;;;15.80;;
20928;SDS011;21895;47.072;15.132;2022-10-18T07:56:08;34.97;;;16.03;;
20928;SDS011;21895;47.072;15.132;2022-10-18T07:58:41;31.07;;;16.27;;
20928;SDS011;21895;47.072;15.132;2022-10-18T08:01:13;33.10;;;16.33;;
20928;SDS011;21895;47.072;15.132;2022-10-18T08:03:40;29.63;;;15.83;;
20928;SDS011;21895;47.072;15.132;2022-10-18T08:06:08;29.63;;;16.17;;
20928;SDS011;21895;47.072;15.132;2022-10-18T08:08:39;35.37;;;16.97;;
20928;SDS011;21895;47.072;15.132;2022-10-18T08:11:09;37.40;;;17.17;;
20928;SDS011;21895;47.072;15.132;2022-10-18T08:13:45;29.70;;;16.53;;
20928;SDS011;21895;47.072;15.132;2022-10-18T08:16:13;31.97;;;17.30;;
20928;SDS011;21895;47.072;15.132;2022-10-18T08:18:43;39.53;;;16.17;;
20928;SDS011;21895;47.072;15.132;2022-10-18T08:21:10;34.60;;;17.03;;
20928;SDS011;21895;47.072;15.132;2022-10-18T08:23:38;31.13;;;17.27;;
20928;SDS011;21895;47.072;15.132;2022-10-18T08:26:06;30.60;;;16.48;;
20928;SDS011;21895;47.072;15.132;2022-10-18T08:28:36;33.72;;;16.33;;
20928;SDS011;21895;47.072;15.132;2022-10-18T08:31:04;33.30;;;17.80;;
20928;SDS011;21895;47.072;15.132;2022-10-18T08:33:35;33.90;;;17.27;;
20928;SDS011;21895;47.072;15.132;2022-10-18T08:36:03;32.20;;;16.92;;
20928;SDS011;21895;47.072;15.132;2022-10-18T08:38:33;39.22;;;18.20;;
20928;SDS011;21895;47.072;15.132;2022-10-18T08:45:46;34.05;;;17.02;;
20928;SDS011;21895;47.072;15.132;2022-10-18T08:48:19;32.22;;;17.95;;
20928;SDS011;21895;47.072;15.132;2022-10-18T08:51:00;30.30;;;16.67;;
20928;SDS011;21895;47.072;15.132;2022-10-18T08:56:32;32.27;;;17.57;;
20928;SDS011;21895;47.072;15.132;2022-10-18T08:59:07;32.78;;;16.87;;
20928;SDS011;21895;47.072;15.132;2022-10-18T09:01:40;37.45;;;18.42;;
20928;SDS011;21895;47.072;15.132;2022-10-18T09:06:43;36.58;;;17.65;;
20928;SDS011;21895;47.072;15.132;2022-10-18T09:09:53;34.15;;;17.75;;
20928;SDS011;21895;47.072;15.132;2022-10-18T09:15:38;41.00;;;16.87;;
20928;SDS011;21895;47.072;15.132;2022-10-18T09:19:49;31.98;;;16.77;;
20928;SDS011;21895;47.072;15.132;2022-10-18T09:24:45;33.35;;;16.27;;
20928;SDS011;21895;47.072;15.132;2022-10-18T09:28:39;26.67;;;15.10;;
20928;SDS011;21895;47.072;15.132;2022-10-18T09:35:54;37.40;;;16.40;;
20928;SDS011;21895;47.072;15.132;2022-10-18T09:38:27;26.02;;;15.38;;
20928;SDS011;21895;47.072;15.132;2022-10-18T09:41:04;29.52;;;15.43;;
20928;SDS011;21895;47.072;15.132;2022-10-18T09:44:15;26.67;;;15.30;;
20928;SDS011;21895;47.072;15.132;2022-10-18T09:46:54;27.10;;;15.20;;
20928;SDS011;21895;47.072;15.132;2022-10-18T09:49:40;25.02;;;14.70;;
20928;SDS011;21895;47.072;15.132;2022-10-18T09:52:17;30.02;;;15.60;;
20928;SDS011;21895;47.072;15.132;2022-10-18T09:54:53;30.67;;;15.52;;
20928;SDS011;21895;47.072;15.132;2022-10-18T09:57:41;24.58;;;15.02;;
20928;SDS011;21895;47.072;15.132;2022-10-18T10:00:21;27.45;;;15.55;;
20928;SDS011;21895;47.072;15.132;2022-10-18T10:02:56;30.05;;;16.42;;
20928;SDS011;21895;47.072;15.132;2022-10-18T10:05:25;28.58;;;15.75;;
20928;SDS011;21895;47.072;15.132;2022-10-18T10:07:56;30.75;;;15.38;;
20928;SDS011;21895;47.072;15.132;2022-10-18T10:10:25;28.35;;;15.27;;
20928;SDS011;21895;47.072;15.132;2022-10-18T10:13:01;26.67;;;16.37;;
20928;SDS011;21895;47.072;15.132;2022-10-18T10:16:00;25.08;;;14.95;;
20928;SDS011;21895;47.072;15.132;2022-10-18T10:18:34;31.62;;;14.23;;
20928;SDS011;21895;47.072;15.132;2022-10-18T10:21:04;25.48;;;15.93;;
20928;SDS011;21895;47.072;15.132;2022-10-18T10:23:45;28.10;;;15.52;;
20928;SDS011;21895;47.072;15.132;2022-10-18T10:26:28;29.48;;;15.38;;
20928;SDS011;21895;47.072;15.132;2022-10-18T10:29:03;25.00;;;14.70;;
20928;SDS011;21895;47.072;15.132;2022-10-18T10:32:43;26.70;;;15.48;;
20928;SDS011;21895;47.072;15.132;2022-10-18T10:35:29;24.45;;;14.07;;
20928;SDS011;21895;47.072;15.132;2022-10-18T10:38:22;30.70;;;16.12;;
20928;SDS011;21895;47.072;15.132;2022-10-18T10:40:51;26.35;;;14.77;;
20928;SDS011;21895;47.072;15.132;2022-10-18T10:43:23;25.95;;;14.23;;
20928;SDS011;21895;47.072;15.132;2022-10-18T10:46:09;24.50;;;14.45;;
20928;SDS011;21895;47.072;15.132;2022-10-18T10:48:50;25.55;;;14.60;;
20928;SDS011;21895;47.072;15.132;2022-10-18T10:52:03;24.27;;;13.57;;
20928;SDS011;21895;47.072;15.132;2022-10-18T10:54:50;25.02;;;13.77;;
20928;SDS011;21895;47.072;15.132;2022-10-18T10:57:26;25.85;;;13.62;;
20928;SDS011;21895;47.072;15.132;2022-10-18T10:59:54;27.08;;;14.10;;
20928;SDS011;21895;47.072;15.132;2022-10-18T11:02:31;25.00;;;13.73;;
20928;SDS011;21895;47.072;15.132;2022-10-18T11:07:54;23.70;;;13.65;;
20928;SDS011;21895;47.072;15.132;2022-10-18T11:10:27;24.33;;;14.43;;
20928;SDS011;21895;47.072;15.132;2022-10-18T11:13:04;25.02;;;13.98;;
20928;SDS011;21895;47.072;15.132;2022-10-18T11:21:24;26.62;;;13.75;;
20928;SDS011;21895;47.072;15.132;2022-10-18T11:23:56;25.95;;;13.75;;
20928;SDS011;21895;47.072;15.132;2022-10-18T11:37:32;25.70;;;14.10;;
20928;SDS011;21895;47.072;15.132;2022-10-18T11:41:18;24.77;;;14.32;;
20928;SDS011;21895;47.072;15.132;2022-10-18T11:47:17;22.85;;;14.23;;
20928;SDS011;21895;47.072;15.132;2022-10-18T11:57:28;24.75;;;14.00;;
20928;SDS011;21895;47.072;15.132;2022-10-18T12:00:46;22.95;;;13.27;;
20928;SDS011;21895;47.072;15.132;2022-10-18T12:08:04;19.30;;;13.15;;
20928;SDS011;21895;47.072;15.132;2022-10-18T12:12:34;28.42;;;15.00;;
20928;SDS011;21895;47.072;15.132;2022-10-18T12:15:15;22.17;;;13.68;;
20928;SDS011;21895;47.072;15.132;2022-10-18T12:17:53;26.50;;;14.02;;
20928;SDS011;21895;47.072;15.132;2022-10-18T12:20:41;21.95;;;13.48;;
20928;SDS011;21895;47.072;15.132;2022-10-18T12:23:20;25.60;;;13.48;;
20928;SDS011;21895;47.072;15.132;2022-10-18T12:26:42;25.77;;;13.90;;
20928;SDS011;21895;47.072;15.132;2022-10-18T12:29:17;22.92;;;14.05;;
20928;SDS011;21895;47.072;15.132;2022-10-18T12:32:21;22.73;;;14.13;;
20928;SDS011;21895;47.072;15.132;2022-10-18T12:34:58;25.12;;;13.60;;
20928;SDS011;21895;47.072;15.132;2022-10-18T12:42:24;25.55;;;13.18;;
20928;SDS011;21895;47.072;15.132;2022-10-18T12:45:03;27.05;;;13.62;;
20928;SDS011;21895;47.072;15.132;2022-10-18T12:47:58;23.58;;;14.05;;
20928;SDS011;21895;47.072;15.132;2022-10-18T12:50:34;24.33;;;13.77;;
20928;SDS011;21895;47.072;15.132;2022-10-18T12:55:53;22.60;;;13.77;;
20928;SDS011;21895;47.072;15.132;2022-10-18T13:03:51;28.30;;;13.05;;
20928;SDS011;21895;47.072;15.132;2022-10-18T13:06:21;24.25;;;13.32;;
20928;SDS011;21895;47.072;15.132;2022-10-18T13:08:53;24.73;;;13.23;;
20928;SDS011;21895;47.072;15.132;2022-10-18T13:11:42;21.48;;;13.15;;
20928;SDS011;21895;47.072;15.132;2022-10-18T13:14:30;22.95;;;13.68;;
20928;SDS011;21895;47.072;15.132;2022-10-18T13:21:17;25.08;;;13.50;;
20928;SDS011;21895;47.072;15.132;2022-10-18T13:24:18;25.50;;;14.20;;
20928;SDS011;21895;47.072;15.132;2022-10-18T13:39:16;25.98;;;13.70;;
20928;SDS011;21895;47.072;15.132;2022-10-18T13:45:51;23.23;;;14.38;;
20928;SDS011;21895;47.072;15.132;2022-10-18T13:58:55;21.48;;;14.15;;
20928;SDS011;21895;47.072;15.132;2022-10-18T14:09:02;21.05;;;13.23;;
20928;SDS011;21895;47.072;15.132;2022-10-18T14:12:16;23.77;;;14.40;;
20928;SDS011;21895;47.072;15.132;2022-10-18T14:15:13;27.85;;;14.38;;
20928;SDS011;21895;47.072;15.132;2022-10-18T14:18:41;20.37;;;14.05;;
20928;SDS011;21895;47.072;15.132;2022-10-18T14:21:15;20.10;;;14.20;;
20928;SDS011;21895;47.072;15.132;2022-10-18T14:23:55;25.05;;;15.38;;
20928;SDS011;21895;47.072;15.132;2022-10-18T14:26:22;27.48;;;14.82;;
20928;SDS011;21895;47.072;15.132;2022-10-18T14:29:01;29.00;;;14.30;;
20928;SDS011;21895;47.072;15.132;2022-10-18T14:31:40;24.27;;;14.50;;
20928;SDS011;21895;47.072;15.132;2022-10-18T14:34:16;22.75;;;15.43;;
20928;SDS011;21895;47.072;15.132;2022-10-18T14:36:44;24.52;;;15.95;;
20928;SDS011;21895;47.072;15.132;2022-10-18T14:39:17;23.33;;;15.35;;
20928;SDS011;21895;47.072;15.132;2022-10-18T14:41:54;28.48;;;16.85;;
20928;SDS011;21895;47.072;15.132;2022-10-18T14:44:26;29.05;;;16.02;;
20928;SDS011;21895;47.072;15.132;2022-10-18T14:46:59;28.40;;;16.98;;
20928;SDS011;21895;47.072;15.132;2022-10-18T14:49:41;28.17;;;16.10;;
20928;SDS011;21895;47.072;15.132;2022-10-18T14:52:11;24.95;;;15.57;;
20928;SDS011;21895;47.072;15.132;2022-10-18T14:54:53;28.38;;;16.67;;
20928;SDS011;21895;47.072;15.132;2022-10-18T14:57:22;33.30;;;16.48;;
20928;SDS011;21895;47.072;15.132;2022-10-18T14:59:57;31.10;;;17.15;;
20928;SDS011;21895;47.072;15.132;2022-10-18T15:02:28;27.58;;;17.65;;
20928;SDS011;21895;47.072;15.132;2022-10-18T15:05:13;35.80;;;18.55;;
20928;SDS011;21895;47.072;15.132;2022-10-18T15:07:47;29.87;;;17.05;;
20928;SDS011;21895;47.072;15.132;2022-10-18T15:10:21;30.40;;;17.15;;
20928;SDS011;21895;47.072;15.132;2022-10-18T15:12:55;28.42;;;17.30;;
20928;SDS011;21895;47.072;15.132;2022-10-18T15:15:42;34.40;;;18.00;;
20928;SDS011;21895;47.072;15.132;2022-10-18T15:18:19;32.22;;;17.65;;
20928;SDS011;21895;47.072;15.132;2022-10-18T15:23:49;33.83;;;18.45;;
20928;SDS011;21895;47.072;15.132;2022-10-18T15:26:24;29.67;;;17.58;;
20928;SDS011;21895;47.072;15.132;2022-10-18T15:28:54;35.15;;;19.62;;
20928;SDS011;21895;47.072;15.132;2022-10-18T15:31:29;32.88;;;18.35;;
20928;SDS011;21895;47.072;15.132;2022-10-18T15:34:07;34.17;;;18.30;;
20928;SDS011;21895;47.072;15.132;2022-10-18T15:36:54;33.92;;;18.17;;
20928;SDS011;21895;47.072;15.132;2022-10-18T15:39:25;26.42;;;17.23;;
20928;SDS011;21895;47.072;15.132;2022-10-18T15:41:59;30.10;;;17.98;;
20928;SDS011;21895;47.072;15.132;2022-10-18T15:44:31;33.88;;;18.27;;
20928;SDS011;21895;47.072;15.132;2022-10-18T15:49:55;27.17;;;16.85;;
20928;SDS011;21895;47.072;15.132;2022-10-18T15:52:27;32.45;;;18.65;;
20928;SDS011;21895;47.072;15.132;2022-10-18T15:59:22;35.58;;;17.87;;
20928;SDS011;21895;47.072;15.132;2022-10-18T16:01:53;31.77;;;19.42;;
20928;SDS011;21895;47.072;15.132;2022-10-18T16:04:26;33.55;;;19.52;;
20928;SDS011;21895;47.072;15.132;2022-10-18T16:06:56;34.63;;;19.83;;
20928;SDS011;21895;47.072;15.132;2022-10-18T16:09:25;43.92;;;20.65;;
20928;SDS011;21895;47.072;15.132;2022-10-18T16:11:54;43.35;;;20.08;;
20928;SDS011;21895;47.072;15.132;2022-10-18T16:14:23;41.53;;;20.30;;
20928;SDS011;21895;47.072;15.132;2022-10-18T16:16:51;35.63;;;20.17;;
20928;SDS011;21895;47.072;15.132;2022-10-18T16:19:26;38.67;;;19.12;;
20928;SDS011;21895;47.072;15.132;2022-10-18T16:21:53;41.83;;;21.87;;
20928;SDS011;21895;47.072;15.132;2022-10-18T16:24:20;54.30;;;23.67;;
20928;SDS011;21895;47.072;15.132;2022-10-18T16:26:47;38.03;;;21.73;;
20928;SDS011;21895;47.072;15.132;2022-10-18T16:29:15;53.20;;;21.17;;
20928;SDS011;21895;47.072;15.132;2022-10-18T16:31:49;43.00;;;20.83;;
20928;SDS011;21895;47.072;15.132;2022-10-18T16:34:18;36.13;;;20.20;;
20928;SDS011;21895;47.072;15.132;2022-10-18T16:36:44;36.03;;;18.52;;
20928;SDS011;21895;47.072;15.132;2022-10-18T16:39:14;42.33;;;19.67;;
20928;SDS011;21895;47.072;15.132;2022-10-18T16:41:42;40.97;;;19.87;;
20928;SDS011;21895;47.072;15.132;2022-10-18T16:44:10;39.47;;;21.08;;
20928;SDS011;21895;47.072;15.132;2022-10-18T16:46:37;44.92;;;20.02;;
20928;SDS011;21895;47.072;15.132;2022-10-18T16:49:04;44.97;;;19.73;;
20928;SDS011;21895;47.072;15.132;2022-10-18T16:51:32;45.17;;;21.33;;
20928;SDS011;21895;47.072;15.132;2022-10-18T16:53:59;32.38;;;17.95;;
20928;SDS011;21895;47.072;15.132;2022-10-18T16:56:26;29.30;;;17.83;;
20928;SDS011;21895;47.072;15.132;2022-10-18T16:58:56;39.70;;;20.58;;
20928;SDS011;21895;47.072;15.132;2022-10-18T17:01:24;56.42;;;21.65;;
20928;SDS011;21895;47.072;15.132;2022-10-18T17:03:51;41.58;;;19.52;;
20928;SDS011;21895;47.072;15.132;2022-10-18T17:06:22;41.33;;;20.15;;
20928;SDS011;21895;47.072;15.132;2022-10-18T17:08:52;41.00;;;20.73;;
20928;SDS011;21895;47.072;15.132;2022-10-18T17:11:20;43.08;;;21.12;;
20928;SDS011;21895;47.072;15.132;2022-10-18T17:13:50;47.35;;;21.23;;
20928;SDS011;21895;47.072;15.132;2022-10-18T17:16:24;41.17;;;20.12;;